Station History

Weather Underground - logo

Station Historical Data
Daily Summary for July 23, 2017 Units:  English    Metric   Both
« Previous Day
Next Day »
Daily Weekly Monthly Yearly Custom
  High: Low: Average:
Temperature: 102.4 °F 69.6 °F 86.1 °F
Dew Point: 69.3 °F 52.0 °F 61.7 °F
Humidity: 78 % 19 % 48 %
Wind Speed: 6.9 mph 0.0 mph 1.3 mph
Wind Gust: 6.9 mph - -
Wind:- - SW
Pressure: 29.78 in 29.63 in -
Precipitation: 0.00 in    
Historical Graphs
 
 
Tabular Data for July 23, 2017
Time Temperature Dew Point Pressure Wind Wind Speed Wind Gust Humidity Rainfall Rate (Hourly)
00:04 75.7 °F 63.5 °F 29.77 in Calm     66 % 0.00 in
00:09 75.7 °F 62.7 °F 29.77 in Calm     64 % 0.00 in
00:14 75.7 °F 64.0 °F 29.77 in Calm     67 % 0.00 in
00:19 75.5 °F 62.5 °F 29.77 in Calm     64 % 0.00 in
00:24 76.0 °F 63.8 °F 29.77 in Calm     66 % 0.00 in
00:29 75.8 °F 64.5 °F 29.77 in Calm     68 % 0.00 in
00:34 75.5 °F 64.2 °F 29.77 in Calm     68 % 0.00 in
00:39 75.4 °F 62.4 °F 29.77 in Calm     64 % 0.00 in
00:44 75.7 °F 62.7 °F 29.77 in Calm     64 % 0.00 in
00:49 75.5 °F 62.5 °F 29.77 in Calm     64 % 0.00 in
00:54 75.3 °F 62.7 °F 29.77 in Calm     65 % 0.00 in
00:59 75.2 °F 63.9 °F 29.76 in Calm     68 % 0.00 in
01:05 75.0 °F 62.4 °F 29.76 in Calm     65 % 0.00 in
01:10 74.9 °F 63.2 °F 29.76 in Calm     67 % 0.00 in
01:15 74.9 °F 62.8 °F 29.76 in Calm     66 % 0.00 in
01:20 74.8 °F 63.1 °F 29.76 in Calm     67 % 0.00 in
01:25 74.9 °F 62.3 °F 29.76 in Calm     65 % 0.00 in
01:30 74.8 °F 61.8 °F 29.76 in Calm     64 % 0.00 in
01:35 74.8 °F 63.9 °F 29.76 in Calm     69 % 0.00 in
01:40 74.5 °F 63.2 °F 29.76 in Calm     68 % 0.00 in
01:45 74.4 °F 63.1 °F 29.76 in Calm     68 % 0.00 in
01:50 74.4 °F 64.4 °F 29.76 in Calm     71 % 0.00 in
01:55 74.3 °F 64.3 °F 29.76 in Calm     71 % 0.00 in
02:00 74.0 °F 64.0 °F 29.75 in Calm     71 % 0.00 in
02:05 73.9 °F 64.3 °F 29.75 in Calm     72 % 0.00 in
02:10 73.6 °F 63.6 °F 29.75 in Calm     71 % 0.00 in
02:15 73.6 °F 63.2 °F 29.75 in Calm     70 % 0.00 in
02:20 73.2 °F 63.2 °F 29.75 in Calm     71 % 0.00 in
02:25 72.3 °F 62.4 °F 29.75 in Calm     71 % 0.00 in
02:30 72.1 °F 63.0 °F 29.75 in Calm     73 % 0.00 in
02:35 72.2 °F 63.4 °F 29.75 in Calm     74 % 0.00 in
02:40 72.2 °F 63.1 °F 29.75 in Calm     73 % 0.00 in
02:45 72.1 °F 63.7 °F 29.75 in Calm     75 % 0.00 in
02:50 71.8 °F 63.4 °F 29.75 in Calm     75 % 0.00 in
02:55 71.6 °F 63.6 °F 29.75 in Calm     76 % 0.00 in
03:00 71.4 °F 64.2 °F 29.75 in Calm     78 % 0.00 in
03:05 71.0 °F 63.4 °F 29.75 in WSW 1.2 mph   77 % 0.00 in
03:10 71.0 °F 63.4 °F 29.75 in Calm     77 % 0.00 in
03:15 71.1 °F 63.5 °F 29.75 in Calm     77 % 0.00 in
03:20 71.2 °F 63.6 °F 29.75 in Calm     77 % 0.00 in
03:25 71.1 °F 63.1 °F 29.75 in Calm     76 % 0.00 in
03:30 71.2 °F 63.6 °F 29.75 in Calm     77 % 0.00 in
03:35 71.1 °F 62.8 °F 29.75 in Calm     75 % 0.00 in
03:40 71.1 °F 63.5 °F 29.75 in Calm     77 % 0.00 in
03:45 70.9 °F 63.0 °F 29.75 in Calm     76 % 0.00 in
03:50 70.7 °F 62.8 °F 29.75 in Calm     76 % 0.00 in
03:55 70.5 °F 62.6 °F 29.75 in Calm     76 % 0.00 in
04:00 70.5 °F 62.6 °F 29.75 in Calm     76 % 0.00 in
04:05 70.5 °F 62.2 °F 29.75 in Calm     75 % 0.00 in
04:10 70.3 °F 62.4 °F 29.75 in Calm     76 % 0.00 in
04:15 70.3 °F 62.0 °F 29.75 in Calm     75 % 0.00 in
04:21 70.4 °F 62.1 °F 29.75 in Calm     75 % 0.00 in
04:26 70.4 °F 62.5 °F 29.75 in Calm     76 % 0.00 in
04:31 70.2 °F 61.9 °F 29.75 in Calm     75 % 0.00 in
04:36 70.1 °F 61.8 °F 29.75 in Calm     75 % 0.00 in
04:41 70.1 °F 61.8 °F 29.75 in Calm     75 % 0.00 in
04:46 70.5 °F 61.4 °F 29.75 in Calm     73 % 0.00 in
04:51 70.7 °F 61.6 °F 29.75 in Calm     73 % 0.00 in
04:56 70.9 °F 61.4 °F 29.75 in Calm     72 % 0.00 in
05:01 71.0 °F 61.9 °F 29.75 in Calm     73 % 0.00 in
05:06 70.9 °F 62.2 °F 29.75 in Calm     74 % 0.00 in
05:11 70.6 °F 62.3 °F 29.75 in Calm     75 % 0.00 in
05:16 70.1 °F 62.2 °F 29.75 in Calm     76 % 0.00 in
05:21 69.8 °F 62.6 °F 29.75 in Calm     78 % 0.00 in
05:26 69.6 °F 61.7 °F 29.75 in Calm     76 % 0.00 in
05:27 69.6 °F 61.7 °F 29.75 in Calm     76 % 0.00 in
05:32 69.8 °F 61.5 °F 29.75 in Calm     75 % 0.00 in
05:37 70.2 °F 61.1 °F 29.75 in Calm     73 % 0.00 in
05:42 70.6 °F 60.7 °F 29.76 in SE 1.2 mph   71 % 0.00 in
05:47 70.8 °F 60.5 °F 29.76 in SE 1.2 mph   70 % 0.00 in
05:52 70.9 °F 60.6 °F 29.76 in Calm     70 % 0.00 in
05:57 70.8 °F 60.5 °F 29.76 in SE 1.2 mph   70 % 0.00 in
06:02 70.5 °F 61.0 °F 29.76 in Calm     72 % 0.00 in
06:07 70.1 °F 61.0 °F 29.76 in Calm     73 % 0.00 in
06:12 69.7 °F 60.7 °F 29.76 in Calm     73 % 0.00 in
06:17 69.9 °F 60.1 °F 29.76 in Calm     71 % 0.00 in
06:22 70.3 °F 59.6 °F 29.76 in SE 1.2 mph   69 % 0.00 in
06:27 70.7 °F 59.6 °F 29.76 in Calm     68 % 0.00 in
06:32 70.8 °F 60.1 °F 29.76 in Calm     69 % 0.00 in
06:37 70.9 °F 60.2 °F 29.76 in Calm     69 % 0.00 in
06:42 71.0 °F 61.9 °F 29.76 in Calm     73 % 0.00 in
06:47 70.8 °F 61.7 °F 29.77 in Calm     73 % 0.00 in
06:52 70.7 °F 62.0 °F 29.76 in Calm     74 % 0.00 in
06:57 70.7 °F 61.6 °F 29.76 in Calm     73 % 0.00 in
06:58 70.7 °F 61.6 °F 29.76 in Calm     73 % 0.00 in
07:03 71.3 °F 62.2 °F 29.76 in Calm     73 % 0.00 in
07:08 72.5 °F 63.0 °F 29.76 in Calm     72 % 0.00 in
07:13 74.0 °F 62.8 °F 29.77 in Calm     68 % 0.00 in
07:18 75.8 °F 62.3 °F 29.77 in Calm     63 % 0.00 in
07:23 77.4 °F 62.4 °F 29.77 in Calm     60 % 0.00 in
07:24 77.4 °F 62.4 °F 29.77 in Calm     60 % 0.00 in
07:29 78.4 °F 62.9 °F 29.77 in Calm     59 % 0.00 in
07:34 78.8 °F 63.3 °F 29.77 in Calm     59 % 0.00 in
07:39 79.6 °F 64.0 °F 29.77 in Calm     59 % 0.00 in
07:44 79.9 °F 64.3 °F 29.77 in Calm     59 % 0.00 in
07:49 79.5 °F 65.3 °F 29.77 in Calm     62 % 0.00 in
07:54 80.3 °F 65.1 °F 29.77 in Calm     60 % 0.00 in
07:59 80.7 °F 65.0 °F 29.77 in Calm     59 % 0.00 in
08:04 80.3 °F 65.1 °F 29.77 in Calm     60 % 0.00 in
08:09 80.1 °F 65.4 °F 29.77 in Calm     61 % 0.00 in
08:14 80.2 °F 65.5 °F 29.77 in Calm     61 % 0.00 in
08:19 80.6 °F 65.4 °F 29.77 in Calm     60 % 0.00 in
08:24 80.9 °F 64.7 °F 29.77 in West 1.2 mph 1.2 mph 58 % 0.00 in
08:29 80.7 °F 65.5 °F 29.77 in West 1.2 mph 1.2 mph 60 % 0.00 in
08:34 80.5 °F 65.3 °F 29.77 in Calm     60 % 0.00 in
08:39 81.1 °F 65.9 °F 29.78 in SSE 1.2 mph 1.2 mph 60 % 0.00 in
08:44 81.6 °F 64.4 °F 29.78 in SE 2.3 mph 2.3 mph 56 % 0.00 in
08:49 82.3 °F 64.5 °F 29.78 in SSE 2.3 mph 2.3 mph 55 % 0.00 in
08:54 82.8 °F 63.9 °F 29.78 in SSE 3.5 mph 3.5 mph 53 % 0.00 in
08:59 83.6 °F 63.6 °F 29.77 in NNW 1.2 mph 1.2 mph 51 % 0.00 in
09:04 84.1 °F 63.5 °F 29.77 in South 2.3 mph 2.3 mph 50 % 0.00 in
09:09 84.7 °F 62.8 °F 29.77 in SSE 3.5 mph 3.5 mph 48 % 0.00 in
09:11 84.8 °F 64.1 °F 29.77 in SSE 2.3 mph 2.3 mph 50 % 0.00 in
09:16 85.5 °F 64.2 °F 29.77 in South 2.3 mph 2.3 mph 49 % 0.00 in
09:21 86.3 °F 64.3 °F 29.77 in NE 1.2 mph 1.2 mph 48 % 0.00 in
09:26 86.5 °F 64.5 °F 29.77 in SSE 1.2 mph 1.2 mph 48 % 0.00 in
09:32 86.9 °F 63.6 °F 29.77 in WNW 3.5 mph 3.5 mph 46 % 0.00 in
09:37 87.0 °F 64.3 °F 29.77 in North 2.3 mph 2.3 mph 47 % 0.00 in
09:42 87.4 °F 64.7 °F 29.77 in Calm     47 % 0.00 in
09:47 88.0 °F 64.0 °F 29.77 in South 1.2 mph 1.2 mph 45 % 0.00 in
09:52 88.3 °F 63.6 °F 29.77 in WNW 3.5 mph 3.5 mph 44 % 0.00 in
09:57 88.5 °F 63.8 °F 29.77 in SSW 1.2 mph   44 % 0.00 in
10:02 89.2 °F 65.1 °F 29.77 in SE 1.2 mph 1.2 mph 45 % 0.00 in
10:07 89.6 °F 64.8 °F 29.77 in SSE 1.2 mph 1.2 mph 44 % 0.00 in
10:12 90.0 °F 65.2 °F 29.77 in SSW 2.3 mph 2.3 mph 44 % 0.00 in
10:17 90.5 °F 64.9 °F 29.77 in East 1.2 mph 1.2 mph 43 % 0.00 in
10:22 90.8 °F 64.5 °F 29.76 in North 3.5 mph 3.5 mph 42 % 0.00 in
10:27 90.6 °F 65.7 °F 29.77 in North 2.3 mph 2.3 mph 44 % 0.00 in
10:32 90.9 °F 66.0 °F 29.77 in ESE 3.5 mph 3.5 mph 44 % 0.00 in
10:37 91.2 °F 66.2 °F 29.77 in SSE 3.5 mph 3.5 mph 44 % 0.00 in
10:42 91.6 °F 65.3 °F 29.77 in South 2.3 mph 2.3 mph 42 % 0.00 in
10:47 92.0 °F 64.9 °F 29.76 in NE 2.3 mph 2.3 mph 41 % 0.00 in
10:52 92.2 °F 62.2 °F 29.76 in SSE 1.2 mph 1.2 mph 37 % 0.00 in
10:57 92.5 °F 65.4 °F 29.76 in SSE 1.2 mph 1.2 mph 41 % 0.00 in
11:02 92.7 °F 63.4 °F 29.76 in SSE 2.3 mph 2.3 mph 38 % 0.00 in
11:07 92.8 °F 61.9 °F 29.76 in North 2.3 mph 2.3 mph 36 % 0.00 in
11:12 92.9 °F 65.7 °F 29.76 in SE 2.3 mph 2.3 mph 41 % 0.00 in
11:17 93.4 °F 63.2 °F 29.76 in SSE 2.3 mph 2.3 mph 37 % 0.00 in
11:22 93.7 °F 67.8 °F 29.76 in SSW 2.3 mph 2.3 mph 43 % 0.00 in
11:28 94.3 °F 66.3 °F 29.76 in East 3.5 mph 3.5 mph 40 % 0.00 in
11:33 94.4 °F 64.9 °F 29.75 in NW 2.3 mph 2.3 mph 38 % 0.00 in
11:38 94.1 °F 63.9 °F 29.75 in WNW 2.3 mph 2.3 mph 37 % 0.00 in
11:43 94.3 °F 62.4 °F 29.75 in NW 2.3 mph 2.3 mph 35 % 0.00 in
11:48 94.2 °F 63.2 °F 29.75 in North 1.2 mph 1.2 mph 36 % 0.00 in
11:53 94.8 °F 64.5 °F 29.75 in South 1.2 mph 1.2 mph 37 % 0.00 in
11:58 95.5 °F 63.5 °F 29.75 in North 2.3 mph 2.3 mph 35 % 0.00 in
12:03 95.6 °F 65.2 °F 29.75 in NNW 3.5 mph 3.5 mph 37 % 0.00 in
12:08 95.7 °F 62.8 °F 29.75 in NW 4.6 mph 4.6 mph 34 % 0.00 in
12:13 96.1 °F 64.8 °F 29.75 in ENE 2.3 mph 2.3 mph 36 % 0.00 in
12:18 96.2 °F 64.1 °F 29.75 in WNW 3.5 mph 3.5 mph 35 % 0.00 in
12:23 96.6 °F 64.5 °F 29.74 in NW 2.3 mph 2.3 mph 35 % 0.00 in
12:28 96.6 °F 64.5 °F 29.74 in ESE 1.2 mph 1.2 mph 35 % 0.00 in
12:33 97.1 °F 64.9 °F 29.74 in SW 1.0 mph   35 % 0.00 in
12:38 97.9 °F 63.0 °F 29.74 in NW 1.2 mph 1.2 mph 32 % 0.00 in
12:43 98.6 °F 62.7 °F 29.74 in West 2.0 mph 2.0 mph 31 % 0.00 in
12:48 98.6 °F 62.7 °F 29.73 in SSE 3.5 mph 3.5 mph 31 % 0.00 in
12:53 98.8 °F 64.7 °F 29.73 in WNW 2.3 mph 2.3 mph 33 % 0.00 in
12:58 98.6 °F 60.8 °F 29.73 in NW 3.5 mph 3.5 mph 29 % 0.00 in
13:03 98.2 °F 59.5 °F 29.73 in NW 2.3 mph 2.3 mph 28 % 0.00 in
13:08 98.4 °F 58.7 °F 29.73 in NW 2.3 mph 2.3 mph 27 % 0.00 in
13:13 98.6 °F 59.9 °F 29.73 in SW 3.5 mph 3.5 mph 28 % 0.00 in
13:18 98.7 °F 58.9 °F 29.73 in WNW 2.3 mph 2.3 mph 27 % 0.00 in
13:23 99.1 °F 60.3 °F 29.72 in East 1.2 mph 1.2 mph 28 % 0.00 in
13:28 99.8 °F 59.9 °F 29.72 in WSW 3.5 mph 3.5 mph 27 % 0.00 in
13:33 99.5 °F 60.6 °F 29.72 in NW 3.5 mph 3.5 mph 28 % 0.00 in
13:38 99.5 °F 61.6 °F 29.71 in NW 3.0 mph 3.0 mph 29 % 0.00 in
13:43 99.8 °F 59.9 °F 29.71 in SW 2.3 mph 2.3 mph 27 % 0.00 in
13:48 100.1 °F 60.1 °F 29.71 in West 2.3 mph 2.3 mph 27 % 0.00 in
13:53 100.5 °F 65.3 °F 29.71 in ESE 1.2 mph 1.2 mph 32 % 0.00 in
13:58 101.0 °F 60.9 °F 29.71 in NW 3.5 mph 3.5 mph 27 % 0.00 in
14:03 101.1 °F 62.0 °F 29.71 in ESE 2.3 mph 2.3 mph 28 % 0.00 in
14:08 101.4 °F 60.1 °F 29.71 in WNW 2.3 mph 2.3 mph 26 % 0.00 in
14:13 101.8 °F 61.5 °F 29.70 in NW 1.2 mph 1.2 mph 27 % 0.00 in
14:18 102.2 °F 59.7 °F 29.70 in NW 2.3 mph 2.3 mph 25 % 0.00 in
14:23 102.1 °F 60.7 °F 29.70 in West 3.5 mph 3.5 mph 26 % 0.00 in
14:28 101.9 °F 60.6 °F 29.70 in NNW 2.3 mph 2.3 mph 26 % 0.00 in
14:33 101.6 °F 62.4 °F 29.70 in NW 2.0 mph 2.0 mph 28 % 0.00 in
14:38 102.0 °F 62.8 °F 29.70 in NW 2.3 mph 2.3 mph 28 % 0.00 in
14:43 102.1 °F 61.8 °F 29.69 in North 3.5 mph 3.5 mph 27 % 0.00 in
14:48 102.4 °F 62.1 °F 29.69 in NW 2.3 mph 2.3 mph 27 % 0.00 in
14:53 101.8 °F 60.5 °F 29.69 in NW 3.5 mph 3.5 mph 26 % 0.00 in
14:58 101.9 °F 61.6 °F 29.69 in NE 1.2 mph 1.2 mph 27 % 0.00 in
15:03 101.9 °F 60.6 °F 29.68 in West 4.0 mph 4.0 mph 26 % 0.00 in
15:08 102.0 °F 62.8 °F 29.68 in West 2.3 mph 2.3 mph 28 % 0.00 in
15:13 102.3 °F 62.0 °F 29.68 in NW 3.0 mph 3.0 mph 27 % 0.00 in
15:18 102.2 °F 59.7 °F 29.68 in NW 3.0 mph 3.0 mph 25 % 0.00 in
15:23 102.1 °F 59.6 °F 29.68 in NW 3.5 mph 3.5 mph 25 % 0.00 in
15:28 101.8 °F 61.5 °F 29.68 in NW 3.5 mph 3.5 mph 27 % 0.00 in
15:33 101.6 °F 60.3 °F 29.67 in NW 5.0 mph 5.0 mph 26 % 0.00 in
15:35 101.5 °F 60.2 °F 29.67 in NW 6.0 mph 6.0 mph 26 % 0.00 in
15:40 101.0 °F 58.7 °F 29.67 in WSW 3.5 mph 3.5 mph 25 % 0.00 in
15:45 101.2 °F 60.0 °F 29.67 in WSW 3.5 mph 3.5 mph 26 % 0.00 in
15:50 101.2 °F 60.0 °F 29.67 in NNW 6.9 mph 6.9 mph 26 % 0.00 in
15:55 101.1 °F 59.9 °F 29.67 in WNW 4.6 mph 4.6 mph 26 % 0.00 in
16:00 101.2 °F 60.0 °F 29.67 in WNW 4.6 mph 4.6 mph 26 % 0.00 in
16:05 101.4 °F 61.2 °F 29.67 in NW 3.5 mph 3.5 mph 27 % 0.00 in
16:10 101.4 °F 59.0 °F 29.66 in NNW 3.5 mph 3.5 mph 25 % 0.00 in
16:15 101.5 °F 60.2 °F 29.66 in NW 2.3 mph 2.3 mph 26 % 0.00 in
16:20 101.7 °F 60.4 °F 29.66 in NNE 5.8 mph 5.8 mph 26 % 0.00 in
16:25 101.7 °F 59.3 °F 29.66 in NW 4.6 mph 4.6 mph 25 % 0.00 in
16:30 101.9 °F 60.6 °F 29.66 in WNW 2.3 mph 2.3 mph 26 % 0.00 in
16:35 101.8 °F 59.4 °F 29.66 in NW 3.5 mph 3.5 mph 25 % 0.00 in
16:40 101.8 °F 60.5 °F 29.66 in WNW 3.5 mph 3.5 mph 26 % 0.00 in
16:45 102.2 °F 60.8 °F 29.65 in NW 3.5 mph 3.5 mph 26 % 0.00 in
16:50 102.0 °F 59.5 °F 29.65 in WNW 3.5 mph 3.5 mph 25 % 0.00 in
16:53 101.9 °F 59.5 °F 29.65 in NW 3.5 mph 3.5 mph 25 % 0.00 in
16:58 101.8 °F 60.5 °F 29.65 in NNW 5.8 mph 5.8 mph 26 % 0.00 in
17:03 101.8 °F 58.2 °F 29.65 in NW 4.0 mph 4.0 mph 24 % 0.00 in
17:08 101.7 °F 57.0 °F 29.65 in WNW 3.5 mph 3.5 mph 23 % 0.00 in
17:13 101.9 °F 58.3 °F 29.65 in NW 3.5 mph 3.5 mph 24 % 0.00 in
17:18 101.8 °F 58.2 °F 29.65 in WNW 2.3 mph 2.3 mph 24 % 0.00 in
17:24 101.9 °F 57.1 °F 29.65 in NNW 3.5 mph 3.5 mph 23 % 0.00 in
17:30 101.7 °F 55.7 °F 29.65 in NW 4.6 mph 4.6 mph 22 % 0.00 in
17:35 101.7 °F 55.7 °F 29.64 in NW 3.5 mph 3.5 mph 22 % 0.00 in
17:40 101.9 °F 57.1 °F 29.64 in NW 2.3 mph 2.3 mph 23 % 0.00 in
17:45 102.0 °F 54.7 °F 29.65 in NW 2.0 mph 2.0 mph 21 % 0.00 in
17:50 102.1 °F 53.5 °F 29.64 in WNW 3.5 mph 3.5 mph 20 % 0.00 in
17:55 102.2 °F 56.2 °F 29.64 in NW 3.5 mph 3.5 mph 22 % 0.00 in
18:00 102.3 °F 56.2 °F 29.64 in NW 3.5 mph 3.5 mph 22 % 0.00 in
18:05 102.2 °F 53.5 °F 29.64 in NW 3.5 mph 3.5 mph 20 % 0.00 in
18:10 102.1 °F 52.1 °F 29.64 in NW 3.5 mph 3.5 mph 19 % 0.00 in
18:16 102.0 °F 52.0 °F 29.63 in NW 3.5 mph 3.5 mph 19 % 0.00 in
18:21 101.8 °F 53.2 °F 29.64 in NW 3.5 mph 3.5 mph 20 % 0.00 in
18:26 101.5 °F 53.0 °F 29.63 in WNW 2.3 mph 2.3 mph 20 % 0.00 in
18:31 101.5 °F 56.8 °F 29.64 in WNW 1.2 mph 1.2 mph 23 % 0.00 in
18:36 101.5 °F 56.8 °F 29.63 in NW 1.2 mph 1.2 mph 23 % 0.00 in
18:41 101.5 °F 55.6 °F 29.63 in WNW 1.2 mph 1.2 mph 22 % 0.00 in
18:46 101.4 °F 56.7 °F 29.63 in WNW 2.3 mph 2.3 mph 23 % 0.00 in
18:51 101.2 °F 56.6 °F 29.63 in NW 2.3 mph 2.3 mph 23 % 0.00 in
18:56 100.9 °F 58.6 °F 29.63 in Calm     25 % 0.00 in
19:01 100.6 °F 57.2 °F 29.63 in NW 1.2 mph 1.2 mph 24 % 0.00 in
19:06 99.9 °F 58.9 °F 29.63 in Calm     26 % 0.00 in
19:11 99.3 °F 59.4 °F 29.63 in Calm     27 % 0.00 in
19:16 98.5 °F 58.8 °F 29.63 in Calm     27 % 0.00 in
19:21 98.0 °F 59.3 °F 29.64 in Calm     28 % 0.00 in
19:26 97.4 °F 59.8 °F 29.64 in Calm     29 % 0.00 in
19:31 96.9 °F 60.3 °F 29.64 in Calm     30 % 0.00 in
19:36 96.3 °F 62.5 °F 29.64 in Calm     33 % 0.00 in
19:41 95.5 °F 66.6 °F 29.64 in Calm     39 % 0.00 in
19:46 94.6 °F 66.5 °F 29.64 in Calm     40 % 0.00 in
19:51 93.5 °F 65.6 °F 29.64 in Calm     40 % 0.00 in
19:56 92.7 °F 64.8 °F 29.64 in Calm     40 % 0.00 in
20:01 92.1 °F 63.6 °F 29.64 in Calm     39 % 0.00 in
20:06 91.5 °F 63.8 °F 29.64 in Calm     40 % 0.00 in
20:11 90.8 °F 63.9 °F 29.64 in Calm     41 % 0.00 in
20:16 90.3 °F 63.4 °F 29.64 in Calm     41 % 0.00 in
20:21 89.9 °F 65.1 °F 29.65 in Calm     44 % 0.00 in
20:26 89.3 °F 65.8 °F 29.65 in Calm     46 % 0.00 in
20:31 88.7 °F 66.5 °F 29.65 in Calm     48 % 0.00 in
20:36 88.0 °F 66.4 °F 29.65 in Calm     49 % 0.00 in
20:41 87.4 °F 66.5 °F 29.65 in Calm     50 % 0.00 in
20:46 86.9 °F 66.6 °F 29.65 in Calm     51 % 0.00 in
20:51 86.4 °F 67.2 °F 29.66 in Calm     53 % 0.00 in
20:56 86.0 °F 67.4 °F 29.66 in Calm     54 % 0.00 in
21:01 85.8 °F 67.2 °F 29.66 in Calm     54 % 0.00 in
21:06 85.4 °F 67.4 °F 29.66 in Calm     55 % 0.00 in
21:11 85.0 °F 69.1 °F 29.66 in Calm     59 % 0.00 in
21:16 84.6 °F 69.2 °F 29.67 in Calm     60 % 0.00 in
21:21 83.7 °F 69.3 °F 29.67 in Calm     62 % 0.00 in
21:22 83.6 °F 69.2 °F 29.67 in SE 1.2 mph 1.2 mph 62 % 0.00 in
21:27 83.1 °F 68.3 °F 29.68 in Calm     61 % 0.00 in
21:32 82.8 °F 67.5 °F 29.68 in Calm     60 % 0.00 in
21:37 82.6 °F 67.8 °F 29.68 in Calm     61 % 0.00 in
21:42 82.3 °F 66.5 °F 29.68 in Calm     59 % 0.00 in
21:45 82.1 °F 64.8 °F 29.68 in Calm     56 % 0.00 in
21:50 81.8 °F 63.0 °F 29.69 in Calm     53 % 0.00 in
21:55 81.9 °F 59.7 °F 29.69 in Calm   0.3 mph 47 % 0.00 in
22:00 82.4 °F 59.5 °F 29.69 in SE 1.0 mph   46 % 0.00 in
22:05 82.6 °F 60.9 °F 29.70 in Calm     48 % 0.00 in
22:10 82.4 °F 58.9 °F 29.70 in Calm     45 % 0.00 in
22:16 82.4 °F 58.9 °F 29.70 in Calm     45 % 0.00 in
22:21 82.2 °F 61.1 °F 29.70 in Calm     49 % 0.00 in
22:26 81.6 °F 59.4 °F 29.70 in SE 1.0 mph 1.0 mph 47 % 0.00 in
22:31 81.0 °F 58.9 °F 29.70 in Calm     47 % 0.00 in
22:36 80.6 °F 57.3 °F 29.70 in SE 1.2 mph 1.2 mph 45 % 0.00 in
22:41 80.3 °F 57.0 °F 29.71 in Calm     45 % 0.00 in
22:46 79.9 °F 54.8 °F 29.71 in SE 2.3 mph 2.3 mph 42 % 0.00 in
22:51 79.9 °F 54.1 °F 29.71 in East 1.2 mph 1.2 mph 41 % 0.00 in
22:56 80.0 °F 53.5 °F 29.71 in East 1.2 mph   40 % 0.00 in
23:01 80.0 °F 53.5 °F 29.71 in ESE 1.2 mph 1.2 mph 40 % 0.00 in
23:06 80.0 °F 52.8 °F 29.71 in SE 3.5 mph 3.5 mph 39 % 0.00 in
23:11 79.9 °F 52.7 °F 29.71 in SE 1.2 mph 1.2 mph 39 % 0.00 in
23:16 79.9 °F 52.0 °F 29.71 in Calm     38 % 0.00 in
23:21 80.0 °F 52.1 °F 29.71 in Calm     38 % 0.00 in
23:26 79.9 °F 52.7 °F 29.71 in Calm     39 % 0.00 in
23:27 79.9 °F 52.0 °F 29.72 in ESE 1.2 mph 1.2 mph 38 % 0.00 in
23:32 79.6 °F 52.5 °F 29.72 in ESE 1.2 mph 1.2 mph 39 % 0.00 in
23:37 79.3 °F 52.9 °F 29.72 in East 1.2 mph 1.2 mph 40 % 0.00 in
23:42 79.0 °F 52.6 °F 29.72 in SE 1.2 mph 1.2 mph 40 % 0.00 in
23:47 78.7 °F 53.0 °F 29.72 in East 2.3 mph 2.3 mph 41 % 0.00 in
23:52 78.4 °F 52.7 °F 29.72 in Calm     41 % 0.00 in
23:57 78.1 °F 52.5 °F 29.72 in Calm     41 % 0.00 in
Park Place, Exeter, Tulare County, California, USA
Compliments of Weather Underground - 2.75 mb